createdAt,value
2019-01-14T00:00:19.458Z,4.70
2019-01-14T00:02:48.120Z,4.70
2019-01-14T00:05:16.673Z,4.60
2019-01-14T00:07:45.222Z,4.60
2019-01-14T00:10:13.684Z,4.50
2019-01-14T00:12:43.110Z,4.50
2019-01-14T00:15:12.190Z,4.50
2019-01-14T00:17:40.926Z,4.50
2019-01-14T00:20:12.390Z,4.50
2019-01-14T00:22:40.957Z,4.50
2019-01-14T00:25:09.841Z,4.50
2019-01-14T00:27:38.418Z,4.50
2019-01-14T00:30:12.575Z,4.50
2019-01-14T00:32:41.032Z,4.50
2019-01-14T00:35:10.142Z,4.40
2019-01-14T00:37:38.620Z,4.40
2019-01-14T00:40:10.483Z,4.40
2019-01-14T00:42:39.405Z,4.40
2019-01-14T00:45:08.726Z,4.50
2019-01-14T00:47:37.340Z,4.50
2019-01-14T00:50:08.937Z,4.40
2019-01-14T00:52:37.484Z,4.40
2019-01-14T00:55:07.674Z,4.40
2019-01-14T00:57:36.232Z,4.40
2019-01-14T01:00:08.338Z,4.40
2019-01-14T01:02:39.557Z,4.30
2019-01-14T01:05:08.548Z,4.40
2019-01-14T01:07:37.098Z,4.40
2019-01-14T01:10:08.937Z,4.40
2019-01-14T01:12:37.563Z,4.40
2019-01-14T01:15:09.329Z,4.50
2019-01-14T01:17:37.936Z,4.40
2019-01-14T01:20:12.342Z,4.40
2019-01-14T01:22:40.880Z,4.40
2019-01-14T01:25:11.180Z,4.40
2019-01-14T01:27:41.001Z,4.50
2019-01-14T01:30:15.378Z,4.50
2019-01-14T01:32:47.039Z,4.50
2019-01-14T01:35:16.963Z,4.50
2019-01-14T01:37:45.673Z,4.50
2019-01-14T01:40:16.737Z,4.50
2019-01-14T01:42:45.411Z,4.50
2019-01-14T01:45:14.478Z,4.40
2019-01-14T01:47:43.050Z,4.40
2019-01-14T01:50:14.442Z,4.30
2019-01-14T01:52:43.054Z,4.30
2019-01-14T01:55:11.949Z,4.30
2019-01-14T01:57:40.430Z,4.30
2019-01-14T02:00:14.709Z,4.20
2019-01-14T02:02:43.271Z,4.20
2019-01-14T02:05:13.259Z,4.20
2019-01-14T02:07:41.811Z,4.10
2019-01-14T02:10:18.600Z,4.10
2019-01-14T02:12:47.078Z,4.10
2019-01-14T02:15:17.985Z,4.10
2019-01-14T02:17:46.601Z,4.10
2019-01-14T02:20:17.412Z,4.10
2019-01-14T02:22:46.126Z,4.10
2019-01-14T02:25:15.527Z,4.00
2019-01-14T02:27:43.997Z,4.00
2019-01-14T02:30:15.528Z,4.10
2019-01-14T02:32:44.010Z,4.10
2019-01-14T02:35:12.457Z,4.20
2019-01-14T02:37:40.933Z,4.30
2019-01-14T02:40:12.650Z,4.40
2019-01-14T02:42:41.223Z,4.50
2019-01-14T02:45:13.060Z,4.60
2019-01-14T02:47:41.629Z,4.70
2019-01-14T02:50:11.716Z,4.80
2019-01-14T02:52:40.302Z,4.90
2019-01-14T02:55:09.966Z,4.90
2019-01-14T02:57:38.537Z,5.00
2019-01-14T03:00:10.417Z,5.00
2019-01-14T03:02:38.989Z,5.10
2019-01-14T03:05:07.903Z,5.20
2019-01-14T03:07:36.422Z,5.20
2019-01-14T03:10:08.214Z,5.30
2019-01-14T03:12:36.793Z,5.30
2019-01-14T03:15:08.493Z,5.00
2019-01-14T03:17:36.998Z,4.60
2019-01-14T03:20:14.384Z,4.40
2019-01-14T03:22:43.220Z,4.30
2019-01-14T03:25:12.290Z,4.10
2019-01-14T03:27:40.763Z,3.90
2019-01-14T03:30:12.290Z,3.80
2019-01-14T03:32:40.829Z,3.80
2019-01-14T03:35:09.435Z,3.80
2019-01-14T03:37:37.900Z,3.80
2019-01-14T03:40:12.182Z,3.90
2019-01-14T03:42:40.660Z,3.90
2019-01-14T03:45:11.242Z,4.00
2019-01-14T03:47:39.985Z,4.00
2019-01-14T03:50:14.365Z,4.00
2019-01-14T03:52:43.090Z,4.00
2019-01-14T03:55:11.622Z,4.00
2019-01-14T03:57:40.468Z,4.10
2019-01-14T04:00:12.349Z,4.10
2019-01-14T04:02:40.888Z,4.00
2019-01-14T04:05:10.615Z,3.90
2019-01-14T04:07:39.163Z,3.90
2019-01-14T04:10:10.934Z,3.90
2019-01-14T04:12:39.505Z,4.00
2019-01-14T04:15:10.570Z,4.00
2019-01-14T04:17:39.079Z,4.00
2019-01-14T04:20:10.777Z,3.90
2019-01-14T04:22:39.390Z,3.90
2019-01-14T04:25:09.608Z,3.90
2019-01-14T04:27:38.155Z,4.00
2019-01-14T04:30:09.689Z,3.90
2019-01-14T04:32:38.230Z,3.70
2019-01-14T04:35:09.299Z,3.70
2019-01-14T04:37:37.855Z,3.70
2019-01-14T04:40:09.431Z,3.70
2019-01-14T04:42:37.969Z,3.70
2019-01-14T04:45:09.289Z,3.70
2019-01-14T04:47:37.843Z,3.70
2019-01-14T04:50:12.247Z,3.70
2019-01-14T04:52:40.780Z,3.60
2019-01-14T04:55:09.525Z,3.60
2019-01-14T04:57:38.083Z,3.60
2019-01-14T05:00:14.060Z,3.60
2019-01-14T05:02:45.166Z,3.60
2019-01-14T05:05:13.858Z,3.60
2019-01-14T05:07:42.591Z,3.50
2019-01-14T05:10:14.237Z,3.50
2019-01-14T05:12:42.719Z,3.50
2019-01-14T05:15:12.618Z,3.50
2019-01-14T05:17:41.111Z,3.50
2019-01-14T05:20:15.522Z,3.50
2019-01-14T05:22:44.148Z,3.50
2019-01-14T05:25:12.709Z,3.50
2019-01-14T05:27:41.230Z,3.40
2019-01-14T05:30:15.697Z,3.50
2019-01-14T05:32:44.229Z,3.50
2019-01-14T05:35:13.612Z,3.50
2019-01-14T05:37:42.174Z,3.50
2019-01-14T05:40:19.172Z,3.50
2019-01-14T05:42:50.850Z,3.50
2019-01-14T05:45:19.416Z,3.60
2019-01-14T05:47:47.937Z,3.60
2019-01-14T05:50:17.384Z,3.60
2019-01-14T05:52:45.940Z,3.70
2019-01-14T05:55:15.957Z,3.70
2019-01-14T05:57:44.820Z,3.70
2019-01-14T06:00:19.303Z,3.70
2019-01-14T06:02:47.809Z,3.70
2019-01-14T06:05:16.372Z,3.70
2019-01-14T06:07:45.220Z,3.60
2019-01-14T06:10:13.866Z,3.60
2019-01-14T06:12:42.401Z,3.60
2019-01-14T06:15:13.405Z,3.60
2019-01-14T06:17:41.882Z,3.60
2019-01-14T06:20:14.063Z,3.60
2019-01-14T06:22:42.621Z,3.60
2019-01-14T06:25:13.338Z,3.70
2019-01-14T06:27:41.866Z,3.80
2019-01-14T06:30:15.907Z,3.90
2019-01-14T06:32:44.383Z,3.90
2019-01-14T06:35:13.363Z,3.90
2019-01-14T06:37:41.922Z,3.90
2019-01-14T06:40:13.679Z,3.80
2019-01-14T06:42:42.244Z,3.80
2019-01-14T06:45:11.638Z,3.90
2019-01-14T06:47:40.201Z,4.00
2019-01-14T06:50:16.777Z,3.90
2019-01-14T06:52:45.763Z,3.90
2019-01-14T06:55:16.887Z,3.90
2019-01-14T06:57:45.656Z,3.80
2019-01-14T07:00:17.515Z,3.60
2019-01-14T07:02:46.061Z,3.50
2019-01-14T07:05:14.876Z,3.50
2019-01-14T07:07:43.600Z,3.30
2019-01-14T07:10:15.267Z,3.30
2019-01-14T07:12:43.791Z,3.30
2019-01-14T07:15:12.531Z,3.30
2019-01-14T07:17:41.064Z,3.30
2019-01-14T07:20:11.672Z,3.30
2019-01-14T07:22:40.154Z,3.30
2019-01-14T07:25:09.845Z,3.30
2019-01-14T07:27:38.380Z,3.20
2019-01-14T07:30:10.028Z,3.20
2019-01-14T07:32:38.585Z,3.20
2019-01-14T07:35:07.789Z,3.20
2019-01-14T07:37:36.317Z,3.10
2019-01-14T07:40:08.099Z,3.10
2019-01-14T07:42:36.670Z,3.10
2019-01-14T07:45:07.248Z,3.00
2019-01-14T07:47:35.699Z,2.90
2019-01-14T07:50:08.381Z,2.90
2019-01-14T07:52:36.863Z,2.90
2019-01-14T07:55:06.314Z,2.80
2019-01-14T07:57:35.593Z,2.70
2019-01-14T08:00:13.180Z,2.60
2019-01-14T08:02:41.700Z,2.60
2019-01-14T08:05:10.203Z,2.70
2019-01-14T08:07:38.735Z,2.80
2019-01-14T08:10:08.059Z,2.90
2019-01-14T08:12:36.599Z,3.00
2019-01-14T08:15:08.215Z,3.10
2019-01-14T08:17:36.678Z,3.20
2019-01-14T08:20:07.885Z,3.20
2019-01-14T08:22:36.671Z,3.30
2019-01-14T08:25:07.086Z,3.40
2019-01-14T08:27:35.562Z,3.40
2019-01-14T08:30:07.181Z,3.30
2019-01-14T08:32:35.657Z,3.20
2019-01-14T08:35:06.059Z,3.00
2019-01-14T08:37:34.587Z,2.90
2019-01-14T08:40:03.524Z,2.90
2019-01-14T08:42:32.051Z,3.00
2019-01-14T08:45:00.526Z,2.90
2019-01-14T08:47:29.006Z,2.90
2019-01-14T08:49:57.579Z,2.90
2019-01-14T08:52:26.099Z,3.00
2019-01-14T08:54:54.560Z,3.00
2019-01-14T08:57:23.249Z,3.00
2019-01-14T08:59:51.798Z,3.10
2019-01-14T09:02:20.307Z,3.10
2019-01-14T09:04:48.861Z,3.10
2019-01-14T09:07:17.427Z,3.50
2019-01-14T09:09:45.965Z,3.70
2019-01-14T09:12:14.465Z,3.90
2019-01-14T09:14:43.023Z,3.90
2019-01-14T09:17:11.569Z,3.80
2019-01-14T09:19:40.128Z,3.70
2019-01-14T09:22:09.303Z,3.50
2019-01-14T09:24:37.779Z,3.50
2019-01-14T09:27:06.250Z,3.40
2019-01-14T09:29:34.709Z,3.40
2019-01-14T09:32:04.553Z,3.30
2019-01-14T09:34:33.076Z,3.30
2019-01-14T09:37:01.581Z,3.60
2019-01-14T09:39:30.131Z,4.00
2019-01-14T09:41:58.676Z,4.10
2019-01-14T09:44:27.160Z,4.00
2019-01-14T09:46:55.703Z,4.00
2019-01-14T09:49:24.157Z,4.20
2019-01-14T09:51:52.665Z,4.30
2019-01-14T09:54:21.193Z,4.20
2019-01-14T09:56:52.505Z,4.00
2019-01-14T09:59:21.055Z,3.90
2019-01-14T10:01:49.533Z,3.80
2019-01-14T10:04:18.004Z,3.90
2019-01-14T10:06:46.556Z,4.10
2019-01-14T10:09:15.009Z,4.10
2019-01-14T10:11:43.512Z,4.00
2019-01-14T10:14:12.400Z,3.80
2019-01-14T10:16:42.074Z,3.70
2019-01-14T10:19:10.623Z,3.50
2019-01-14T10:21:39.192Z,3.50
2019-01-14T10:24:07.753Z,3.60
2019-01-14T10:26:36.304Z,3.60
2019-01-14T10:29:04.859Z,3.60
2019-01-14T10:31:33.408Z,3.60
2019-01-14T10:34:01.906Z,3.70
2019-01-14T10:36:30.488Z,3.70
2019-01-14T10:38:59.007Z,3.60
2019-01-14T10:41:27.513Z,3.70
2019-01-14T10:43:56.040Z,3.80
2019-01-14T10:46:24.506Z,3.80
2019-01-14T10:48:52.989Z,4.00
2019-01-14T10:51:21.632Z,4.10
2019-01-14T10:53:50.186Z,4.20
2019-01-14T10:56:18.704Z,4.30
2019-01-14T10:58:48.128Z,4.20
2019-01-14T11:01:16.679Z,3.90
2019-01-14T11:03:45.229Z,3.90
2019-01-14T11:06:17.729Z,3.90
2019-01-14T11:08:46.303Z,4.00
2019-01-14T11:11:15.055Z,3.90
2019-01-14T11:13:43.523Z,3.90
2019-01-14T11:16:12.006Z,3.90
2019-01-14T11:18:48.545Z,3.80
2019-01-14T11:21:17.162Z,3.70
2019-01-14T11:23:45.709Z,3.70
2019-01-14T11:26:14.613Z,3.70
2019-01-14T11:28:43.084Z,3.60
2019-01-14T11:31:11.575Z,3.60
2019-01-14T11:33:41.253Z,3.60
2019-01-14T11:36:09.807Z,3.60
2019-01-14T11:38:43.715Z,3.70
2019-01-14T11:41:13.035Z,3.70
2019-01-14T11:43:41.526Z,3.70
2019-01-14T11:46:10.061Z,3.70
2019-01-14T11:48:38.640Z,3.70
2019-01-14T11:51:07.172Z,3.70
2019-01-14T11:53:35.671Z,3.70
2019-01-14T11:56:04.770Z,3.70
2019-01-14T11:58:33.328Z,3.80
2019-01-14T12:01:01.787Z,3.90
2019-01-14T12:03:30.279Z,4.00
2019-01-14T12:05:58.820Z,4.10
2019-01-14T12:08:27.294Z,4.20
2019-01-14T12:10:58.866Z,4.10
2019-01-14T12:13:27.405Z,4.20
2019-01-14T12:15:55.972Z,4.20
2019-01-14T12:18:24.540Z,4.30
2019-01-14T12:20:53.060Z,4.20
2019-01-14T12:23:21.594Z,4.20
2019-01-14T12:25:50.121Z,4.20
2019-01-14T12:28:18.730Z,4.30
2019-01-14T12:30:48.275Z,4.20
2019-01-14T12:33:16.818Z,4.30
2019-01-14T12:35:45.301Z,4.40
2019-01-14T12:38:13.907Z,4.50
2019-01-14T12:40:42.438Z,4.50
2019-01-14T12:43:10.947Z,4.40
2019-01-14T12:45:39.479Z,4.30
2019-01-14T12:48:08.123Z,4.10
2019-01-14T12:50:36.670Z,3.80
2019-01-14T12:53:05.330Z,3.40
2019-01-14T12:55:33.889Z,3.10
2019-01-14T12:58:02.454Z,3.00
2019-01-14T13:00:31.247Z,3.00
2019-01-14T13:02:59.732Z,2.90
2019-01-14T13:05:29.097Z,3.10
2019-01-14T13:07:57.601Z,3.20
2019-01-14T13:10:26.121Z,3.20
2019-01-14T13:12:54.729Z,3.30
2019-01-14T13:15:25.115Z,3.30
2019-01-14T13:17:53.860Z,3.40
2019-01-14T13:20:24.733Z,3.40
2019-01-14T13:22:53.450Z,3.50
2019-01-14T13:25:22.422Z,3.40
2019-01-14T13:27:50.919Z,3.40
2019-01-14T13:30:26.623Z,3.50
2019-01-14T13:32:55.528Z,3.50
2019-01-14T13:35:24.116Z,3.50
2019-01-14T13:37:52.755Z,3.50
2019-01-14T13:40:21.492Z,3.50
2019-01-14T13:42:49.985Z,3.50
2019-01-14T13:45:22.711Z,3.60
2019-01-14T13:47:52.067Z,3.70
2019-01-14T13:50:25.325Z,3.70
2019-01-14T13:52:53.878Z,3.70
2019-01-14T13:55:22.689Z,3.60
2019-01-14T13:57:52.495Z,3.70
2019-01-14T14:00:23.527Z,3.90
2019-01-14T14:02:53.018Z,4.00
2019-01-14T14:05:21.571Z,4.00
2019-01-14T14:07:53.383Z,3.90
2019-01-14T14:10:24.922Z,3.90
2019-01-14T14:12:53.507Z,3.90
2019-01-14T14:15:23.203Z,4.00
2019-01-14T14:17:51.733Z,4.00
2019-01-14T14:20:20.570Z,4.00
2019-01-14T14:22:49.062Z,4.00
2019-01-14T14:25:17.700Z,4.00
2019-01-14T14:27:46.235Z,3.90
2019-01-14T14:30:29.951Z,3.90
2019-01-14T14:32:58.522Z,3.80
2019-01-14T14:35:27.274Z,3.80
2019-01-14T14:38:00.913Z,3.70
2019-01-14T14:40:26.317Z,3.70
2019-01-14T14:42:54.851Z,3.60
2019-01-14T14:45:24.356Z,3.60
2019-01-14T14:47:52.906Z,3.50
2019-01-14T14:50:21.815Z,3.50
2019-01-14T14:52:50.290Z,3.40
2019-01-14T14:55:18.828Z,3.40
2019-01-14T14:57:47.358Z,3.40
2019-01-14T15:00:18.502Z,3.30
2019-01-14T15:02:47.036Z,3.30
2019-01-14T15:05:15.780Z,3.30
2019-01-14T15:07:44.335Z,3.20
2019-01-14T15:10:15.129Z,3.10
2019-01-14T15:12:43.862Z,3.10
2019-01-14T15:15:15.296Z,3.00
2019-01-14T15:17:43.752Z,3.10
2019-01-14T15:20:17.429Z,3.10
2019-01-14T15:22:45.984Z,3.00
2019-01-14T15:25:14.794Z,3.00
2019-01-14T15:27:43.360Z,3.00
2019-01-14T15:30:20.854Z,2.90
2019-01-14T15:32:49.404Z,2.90
2019-01-14T15:35:18.060Z,2.90
2019-01-14T15:37:46.590Z,2.80
2019-01-14T15:40:17.234Z,2.80
2019-01-14T15:42:45.779Z,2.80
2019-01-14T15:45:16.624Z,2.70
2019-01-14T15:47:45.150Z,2.70
2019-01-14T15:50:13.763Z,2.80
2019-01-14T15:52:42.241Z,2.70
2019-01-14T15:55:14.025Z,2.70
2019-01-14T15:57:42.674Z,2.70
2019-01-14T16:00:14.235Z,2.70
2019-01-14T16:02:42.708Z,2.70
2019-01-14T16:05:11.317Z,2.70
2019-01-14T16:07:42.700Z,2.70
2019-01-14T16:10:16.539Z,2.70
2019-01-14T16:12:45.302Z,2.70
2019-01-14T16:15:14.135Z,2.70
2019-01-14T16:17:42.822Z,2.70
2019-01-14T16:20:21.921Z,2.70
2019-01-14T16:22:50.725Z,2.60
2019-01-14T16:25:19.307Z,2.60
2019-01-14T16:27:47.876Z,2.60
2019-01-14T16:30:18.668Z,2.60
2019-01-14T16:32:47.255Z,2.50
2019-01-14T16:35:15.798Z,2.60
2019-01-14T16:37:44.437Z,2.60
2019-01-14T16:40:18.019Z,2.60
2019-01-14T16:42:43.753Z,2.60
2019-01-14T16:45:15.210Z,2.70
2019-01-14T16:47:43.707Z,2.90
2019-01-14T16:50:14.206Z,3.00
2019-01-14T16:52:42.834Z,2.90
2019-01-14T16:55:12.962Z,2.80
2019-01-14T16:57:41.545Z,2.80
2019-01-14T17:00:13.640Z,2.70
2019-01-14T17:02:42.720Z,2.70
2019-01-14T17:05:13.555Z,2.60
2019-01-14T17:07:41.936Z,2.70
2019-01-14T17:10:15.196Z,2.70
2019-01-14T17:12:43.751Z,2.80
2019-01-14T17:15:12.924Z,2.80
2019-01-14T17:17:41.532Z,2.80
2019-01-14T17:20:13.188Z,2.80
2019-01-14T17:22:41.754Z,2.80
2019-01-14T17:25:10.652Z,2.80
2019-01-14T17:27:39.144Z,2.70
2019-01-14T17:30:10.635Z,2.60
2019-01-14T17:32:39.165Z,2.60
2019-01-14T17:35:10.492Z,2.50
2019-01-14T17:37:39.058Z,2.50
2019-01-14T17:40:16.245Z,2.50
2019-01-14T17:42:44.918Z,2.50
2019-01-14T17:45:13.624Z,2.40
2019-01-14T17:47:42.350Z,2.40
2019-01-14T17:50:14.031Z,2.40
2019-01-14T17:52:42.577Z,2.50
2019-01-14T17:55:11.124Z,2.50
2019-01-14T17:57:39.707Z,2.40
2019-01-14T18:00:13.966Z,2.50
2019-01-14T18:02:43.343Z,2.50
2019-01-14T18:05:12.887Z,2.50
2019-01-14T18:07:41.479Z,2.60
2019-01-14T18:10:15.562Z,2.80
2019-01-14T18:12:45.828Z,2.80
2019-01-14T18:15:14.594Z,2.80
2019-01-14T18:17:44.856Z,2.80
2019-01-14T18:20:18.302Z,2.80
2019-01-14T18:22:46.963Z,2.70
2019-01-14T18:25:19.614Z,2.70
2019-01-14T18:27:48.158Z,2.70
2019-01-14T18:30:19.054Z,2.90
2019-01-14T18:32:47.615Z,3.10
2019-01-14T18:35:17.231Z,3.20
2019-01-14T18:37:46.056Z,3.30
2019-01-14T18:40:16.292Z,3.40
2019-01-14T18:42:45.055Z,3.50
2019-01-14T18:45:16.097Z,3.60
2019-01-14T18:47:44.726Z,3.70
2019-01-14T18:50:15.869Z,3.70
2019-01-14T18:52:44.421Z,3.70
2019-01-14T18:55:13.041Z,3.70
2019-01-14T18:57:42.419Z,3.70
2019-01-14T19:00:17.308Z,3.70
2019-01-14T19:02:45.862Z,3.70
2019-01-14T19:05:14.422Z,3.70
2019-01-14T19:07:44.549Z,3.70
2019-01-14T19:10:15.077Z,3.80
2019-01-14T19:12:44.736Z,3.80
2019-01-14T19:15:16.375Z,3.80
2019-01-14T19:17:44.967Z,3.80
2019-01-14T19:20:16.357Z,3.90
2019-01-14T19:22:44.897Z,4.00
2019-01-14T19:25:14.374Z,4.00
2019-01-14T19:27:45.836Z,4.00
2019-01-14T19:30:17.474Z,4.00
2019-01-14T19:32:46.064Z,4.00
2019-01-14T19:35:16.649Z,3.90
2019-01-14T19:37:45.174Z,3.90
2019-01-14T19:40:16.433Z,3.90
2019-01-14T19:42:45.011Z,3.90
2019-01-14T19:45:18.233Z,3.90
2019-01-14T19:47:46.955Z,4.00
2019-01-14T19:50:21.864Z,4.00
2019-01-14T19:52:51.875Z,4.00
2019-01-14T19:55:20.397Z,4.00
2019-01-14T19:57:48.973Z,3.90
2019-01-14T20:00:25.533Z,3.90
2019-01-14T20:02:54.995Z,3.90
2019-01-14T20:05:24.137Z,3.90
2019-01-14T20:07:52.836Z,4.00
2019-01-14T20:10:21.664Z,4.00
2019-01-14T20:12:50.799Z,4.00
2019-01-14T20:15:20.972Z,4.00
2019-01-14T20:17:51.143Z,4.00
2019-01-14T20:20:19.773Z,4.20
2019-01-14T20:22:49.462Z,4.30
2019-01-14T20:25:18.039Z,4.40
2019-01-14T20:27:46.601Z,4.50
2019-01-14T20:30:19.105Z,4.50
2019-01-14T20:32:47.887Z,4.40
2019-01-14T20:35:17.333Z,4.40
2019-01-14T20:37:46.930Z,4.40
2019-01-14T20:40:18.751Z,4.50
2019-01-14T20:42:47.910Z,4.40
2019-01-14T20:45:17.413Z,4.40
2019-01-14T20:47:49.504Z,4.30
2019-01-14T20:50:19.662Z,4.20
2019-01-14T20:52:48.410Z,4.20
2019-01-14T20:55:22.058Z,4.10
2019-01-14T20:57:50.656Z,4.10
2019-01-14T21:00:22.084Z,4.10
2019-01-14T21:02:50.719Z,4.10
2019-01-14T21:05:19.639Z,4.00
2019-01-14T21:07:48.309Z,4.00
2019-01-14T21:10:18.558Z,4.00
2019-01-14T21:12:50.051Z,4.00
2019-01-14T21:15:18.610Z,4.00
2019-01-14T21:17:48.630Z,3.90
2019-01-14T21:20:22.412Z,3.90
2019-01-14T21:22:51.226Z,3.90
2019-01-14T21:25:19.768Z,3.90
2019-01-14T21:27:48.615Z,4.00
2019-01-14T21:30:20.257Z,4.00
2019-01-14T21:32:49.080Z,4.00
2019-01-14T21:35:18.394Z,3.90
2019-01-14T21:37:47.395Z,3.90
2019-01-14T21:40:16.138Z,3.90
2019-01-14T21:42:44.687Z,3.90
2019-01-14T21:45:16.257Z,3.90
2019-01-14T21:47:44.840Z,3.90
2019-01-14T21:50:18.446Z,3.80
2019-01-14T21:52:47.148Z,3.80
2019-01-14T21:55:18.444Z,3.90
2019-01-14T21:57:47.026Z,3.90
2019-01-14T22:00:18.205Z,4.00
2019-01-14T22:02:46.754Z,4.00
2019-01-14T22:05:15.261Z,4.00
2019-01-14T22:07:43.842Z,4.10
2019-01-14T22:10:15.050Z,4.20
2019-01-14T22:12:43.598Z,4.30
2019-01-14T22:15:12.699Z,4.40
2019-01-14T22:17:41.245Z,4.50
2019-01-14T22:20:21.592Z,4.60
2019-01-14T22:22:50.192Z,4.60
2019-01-14T22:25:18.826Z,4.70
2019-01-14T22:27:47.541Z,4.80
2019-01-14T22:30:18.795Z,4.90
2019-01-14T22:32:47.273Z,4.90
2019-01-14T22:35:15.759Z,5.00
2019-01-14T22:37:44.219Z,5.00
2019-01-14T22:40:14.371Z,5.00
2019-01-14T22:42:42.992Z,5.10
2019-01-14T22:45:12.709Z,5.10
2019-01-14T22:47:41.236Z,5.10
2019-01-14T22:50:18.038Z,5.10
2019-01-14T22:52:47.067Z,5.20
2019-01-14T22:55:15.682Z,5.20
2019-01-14T22:57:45.653Z,5.30
2019-01-14T23:00:47.432Z,5.40
2019-01-14T23:03:15.978Z,5.40
2019-01-14T23:05:44.535Z,5.40
2019-01-14T23:08:13.570Z,5.30
2019-01-14T23:10:42.112Z,5.30
2019-01-14T23:13:10.595Z,5.30
2019-01-14T23:15:39.144Z,5.40
2019-01-14T23:18:07.778Z,5.40
2019-01-14T23:20:36.282Z,5.40
2019-01-14T23:23:04.822Z,5.40
2019-01-14T23:25:33.330Z,5.40
2019-01-14T23:28:01.881Z,5.40
2019-01-14T23:30:30.450Z,5.40
2019-01-14T23:32:58.947Z,5.50
2019-01-14T23:35:27.524Z,5.50
2019-01-14T23:37:57.719Z,5.60
2019-01-14T23:40:28.986Z,5.50
2019-01-14T23:42:59.038Z,5.50
2019-01-14T23:45:27.746Z,5.60
2019-01-14T23:47:56.275Z,5.50
2019-01-14T23:50:24.990Z,5.50
2019-01-14T23:52:53.521Z,5.50
2019-01-14T23:55:22.026Z,5.50
2019-01-14T23:57:50.585Z,5.40
